UAL140 YPPH-YSSY
Flight info
| Callsign | UAL140 |
|---|---|
| Flight time | N/A |
| Altitude | 39000 |
| Route | PH H18 MUBID J21 BORLI H205 CULIN Y59 RIVET |
| Aircraft | B77W/H-SDE1E2E3FGHIJ2J3J4J5M1RWXY/LB1D1 |
Departure
| Time | 2026-04-30 06:26 |
|---|---|
| Airport | Perth International Airport (YPPH) |
Arrival
| Time | N/A |
|---|---|
| Airport | Sydney Kingsford Smith International Airport (YSSY) |
| Time | Latitude | Longitude | Altitude | Speed | Heading |
|---|---|---|---|---|---|
| 2026-04-30 06:17 | -31.94048 | 115.97122 | 71 ft | 0 kts | 194° |
| 2026-04-30 06:20 | -31.94041 | 115.97124 | 71 ft | 2 kts | 194° |
| 2026-04-30 06:21 | -31.94025 | 115.97129 | 71 ft | 2 kts | 194° |
| 2026-04-30 06:21 | -31.94009 | 115.97133 | 71 ft | 2 kts | 194° |
| 2026-04-30 06:21 | -31.93993 | 115.97139 | 71 ft | 2 kts | 214° |
| 2026-04-30 06:21 | -31.93983 | 115.97153 | 71 ft | 2 kts | 243° |
| 2026-04-30 06:22 | -31.93975 | 115.97170 | 71 ft | 2 kts | 253° |
| 2026-04-30 06:22 | -31.93974 | 115.97175 | 71 ft | 0 kts | 256° |
| 2026-04-30 06:23 | -31.93971 | 115.97145 | 61 ft | 14 kts | 288° |
| 2026-04-30 06:23 | -31.93924 | 115.96980 | 63 ft | 25 kts | 295° |
| 2026-04-30 06:23 | -31.93759 | 115.96943 | 65 ft | 29 kts | 13° |
| 2026-04-30 06:23 | -31.93545 | 115.96999 | 53 ft | 33 kts | 13° |
| 2026-04-30 06:24 | -31.93324 | 115.97060 | 54 ft | 32 kts | 13° |
| 2026-04-30 06:24 | -31.93111 | 115.97127 | 58 ft | 31 kts | 14° |
| 2026-04-30 06:24 | -31.92944 | 115.97108 | 54 ft | 25 kts | 304° |
| 2026-04-30 06:24 | -31.92896 | 115.96913 | 55 ft | 25 kts | 281° |
| 2026-04-30 06:25 | -31.92947 | 115.96822 | 50 ft | 11 kts | 193° |
| 2026-04-30 06:25 | -31.92952 | 115.96820 | 56 ft | 1 kts | 193° |
| 2026-04-30 06:25 | -31.93239 | 115.96736 | 50 ft | 98 kts | 194° |
| 2026-04-30 06:25 | -31.94268 | 115.96428 | 87 ft | 202 kts | 194° |
| 2026-04-30 06:26 | -31.95827 | 115.96012 | 763 ft | 245 kts | 194° |
| 2026-04-30 06:26 | -31.97508 | 115.95477 | 2461 ft | 253 kts | 194° |
| 2026-04-30 06:26 | -31.99152 | 115.95014 | 4271 ft | 233 kts | 192° |
| 2026-04-30 06:26 | -32.00795 | 115.94993 | 5072 ft | 251 kts | 169° |
| 2026-04-30 06:27 | -32.02407 | 115.95951 | 5772 ft | 270 kts | 142° |
| 2026-04-30 06:27 | -32.03637 | 115.97630 | 6661 ft | 281 kts | 120° |
| 2026-04-30 06:27 | -32.04309 | 115.99822 | 7527 ft | 288 kts | 108° |
| 2026-04-30 06:27 | -32.04829 | 116.02128 | 8446 ft | 293 kts | 107° |
| 2026-04-30 06:28 | -32.05348 | 116.04472 | 9419 ft | 297 kts | 107° |
| 2026-04-30 06:28 | -32.05878 | 116.06835 | 10324 ft | 302 kts | 107° |
| 2026-04-30 06:28 | -32.06439 | 116.09297 | 10858 ft | 323 kts | 107° |
| 2026-04-30 06:28 | -32.07064 | 116.11988 | 11100 ft | 356 kts | 107° |
| 2026-04-30 06:29 | -32.07753 | 116.14925 | 11323 ft | 385 kts | 107° |
| 2026-04-30 06:29 | -32.08363 | 116.18045 | 11815 ft | 398 kts | 96° |
| 2026-04-30 06:29 | -32.08072 | 116.21336 | 12493 ft | 410 kts | 72° |
| 2026-04-30 06:29 | -32.06807 | 116.24356 | 13438 ft | 412 kts | 51° |
| 2026-04-30 06:30 | -32.04928 | 116.26828 | 14320 ft | 411 kts | 44° |
| 2026-04-30 06:30 | -32.02903 | 116.29268 | 15123 ft | 419 kts | 43° |
| 2026-04-30 06:30 | -32.00850 | 116.31741 | 15965 ft | 425 kts | 43° |
| 2026-04-30 06:30 | -31.98956 | 116.34058 | 16783 ft | 428 kts | 43° |
| 2026-04-30 06:31 | -31.96841 | 116.36682 | 17637 ft | 433 kts | 44° |
| 2026-04-30 06:31 | -31.94756 | 116.39283 | 18452 ft | 438 kts | 43° |
| 2026-04-30 06:31 | -31.92868 | 116.42118 | 19018 ft | 448 kts | 59° |